createdAt,value
2017-10-28T00:00:04.473Z,14.80
2017-10-28T00:02:31.939Z,15.00
2017-10-28T00:04:59.431Z,14.90
2017-10-28T00:07:26.876Z,14.80
2017-10-28T00:09:54.313Z,14.50
2017-10-28T00:12:21.799Z,14.30
2017-10-28T00:14:49.230Z,14.10
2017-10-28T00:17:16.697Z,14.50
2017-10-28T00:19:44.157Z,14.90
2017-10-28T00:22:11.601Z,14.90
2017-10-28T00:24:39.044Z,14.80
2017-10-28T00:27:06.492Z,14.60
2017-10-28T00:29:34.676Z,14.50
2017-10-28T00:32:07.866Z,14.50
2017-10-28T00:34:41.028Z,14.80
2017-10-28T00:37:08.492Z,14.60
2017-10-28T00:39:36.698Z,14.90
2017-10-28T00:42:04.130Z,14.90
2017-10-28T00:44:32.321Z,14.40
2017-10-28T00:47:00.705Z,14.40
2017-10-28T00:49:28.142Z,14.20
2017-10-28T00:51:56.337Z,14.50
2017-10-28T00:54:23.774Z,14.50
2017-10-28T00:56:51.976Z,14.70
2017-10-28T00:59:19.428Z,14.70
2017-10-28T01:01:46.895Z,14.50
2017-10-28T01:04:14.357Z,14.50
2017-10-28T01:06:41.801Z,14.60
2017-10-28T01:09:09.226Z,15.00
2017-10-28T01:11:36.706Z,15.30
2017-10-28T01:14:04.886Z,15.20
2017-10-28T01:16:32.337Z,15.20
2017-10-28T01:18:59.771Z,15.30
2017-10-28T01:21:27.242Z,15.20
2017-10-28T01:23:55.467Z,15.00
2017-10-28T01:26:22.896Z,15.00
2017-10-28T01:28:50.382Z,14.20
2017-10-28T01:31:18.754Z,14.20
2017-10-28T01:33:46.201Z,14.30
2017-10-28T01:36:13.673Z,14.00
2017-10-28T01:38:41.137Z,13.80
2017-10-28T01:41:08.591Z,14.10
2017-10-28T01:43:36.032Z,13.90
2017-10-28T01:46:03.504Z,14.00
2017-10-28T01:48:30.945Z,14.20
2017-10-28T01:50:58.411Z,14.00
2017-10-28T01:53:25.870Z,14.10
2017-10-28T01:55:53.341Z,14.20
2017-10-28T01:58:20.826Z,14.40
2017-10-28T02:00:48.266Z,14.20
2017-10-28T02:03:15.785Z,14.00
2017-10-28T02:05:43.238Z,14.00
2017-10-28T02:08:10.711Z,13.90
2017-10-28T02:10:38.145Z,13.60
2017-10-28T02:13:06.350Z,13.20
2017-10-28T02:15:33.916Z,13.20
2017-10-28T02:18:01.344Z,13.30
2017-10-28T02:20:28.824Z,13.40
2017-10-28T02:22:56.275Z,13.60
2017-10-28T02:25:23.721Z,14.10
2017-10-28T02:27:51.897Z,14.60
2017-10-28T02:30:19.379Z,14.60
2017-10-28T02:32:46.809Z,14.50
2017-10-28T02:35:14.430Z,14.50
2017-10-28T02:37:41.886Z,14.60
2017-10-28T02:40:09.377Z,14.90
2017-10-28T02:42:37.560Z,14.10
2017-10-28T02:45:05.017Z,14.00
2017-10-28T02:47:32.474Z,14.40
2017-10-28T02:49:59.928Z,14.40
2017-10-28T02:52:27.408Z,14.40
2017-10-28T02:54:54.850Z,14.60
2017-10-28T02:57:22.315Z,14.40
2017-10-28T02:59:49.760Z,14.40
2017-10-28T03:02:17.220Z,13.90
2017-10-28T03:04:45.448Z,14.00
2017-10-28T03:07:12.906Z,14.00
2017-10-28T03:09:40.368Z,14.00
2017-10-28T03:12:07.847Z,13.30
2017-10-28T03:14:35.340Z,13.70
2017-10-28T03:17:02.794Z,13.70
2017-10-28T03:19:30.270Z,14.00
2017-10-28T03:21:58.422Z,13.90
2017-10-28T03:24:26.629Z,14.20
2017-10-28T03:26:54.129Z,14.20
2017-10-28T03:29:22.358Z,14.40
2017-10-28T03:31:49.795Z,14.40
2017-10-28T03:34:17.242Z,14.20
2017-10-28T03:36:44.700Z,14.10
2017-10-28T03:39:12.160Z,14.30
2017-10-28T03:41:39.617Z,14.10
2017-10-28T03:44:07.098Z,14.10
2017-10-28T03:46:34.569Z,14.40
2017-10-28T03:49:02.002Z,14.10
2017-10-28T03:51:29.473Z,14.10
2017-10-28T03:53:56.933Z,14.00
2017-10-28T03:56:24.391Z,13.90
2017-10-28T03:58:51.835Z,13.90
2017-10-28T04:01:19.358Z,13.90
2017-10-28T04:03:47.573Z,13.60
2017-10-28T04:06:15.049Z,13.50
2017-10-28T04:08:42.490Z,13.70
2017-10-28T04:11:09.950Z,13.50
2017-10-28T04:13:37.406Z,13.10
2017-10-28T04:16:04.872Z,13.40
2017-10-28T04:18:32.343Z,13.70
2017-10-28T04:20:59.809Z,13.50
2017-10-28T04:23:27.267Z,13.60
2017-10-28T04:25:54.703Z,13.60
2017-10-28T04:28:22.181Z,13.40
2017-10-28T04:30:49.618Z,13.50
2017-10-28T04:33:17.319Z,13.80
2017-10-28T04:35:44.766Z,13.50
2017-10-28T04:38:12.219Z,13.50
2017-10-28T04:40:39.662Z,13.70
2017-10-28T04:43:07.854Z,13.00
2017-10-28T04:45:35.293Z,13.00
2017-10-28T04:48:02.755Z,13.40
2017-10-28T04:50:30.205Z,13.40
2017-10-28T04:52:57.680Z,13.40
2017-10-28T04:55:25.174Z,13.50
2017-10-28T04:57:53.409Z,13.40
2017-10-28T05:00:20.868Z,13.30
2017-10-28T05:02:48.522Z,13.40
2017-10-28T05:05:15.985Z,13.40
2017-10-28T05:07:43.450Z,13.30
2017-10-28T05:10:10.927Z,13.40
2017-10-28T05:12:38.370Z,13.30
2017-10-28T05:15:06.577Z,12.80
2017-10-28T05:17:34.022Z,12.70
2017-10-28T05:20:01.489Z,12.90
2017-10-28T05:22:29.018Z,13.10
2017-10-28T05:24:56.485Z,13.00
2017-10-28T05:27:23.947Z,13.30
2017-10-28T05:29:52.145Z,13.30
2017-10-28T05:32:20.345Z,13.50
2017-10-28T05:34:47.777Z,13.50
2017-10-28T05:37:16.027Z,13.50
2017-10-28T05:39:43.486Z,13.40
2017-10-28T05:42:10.954Z,13.70
2017-10-28T05:44:39.317Z,13.50
2017-10-28T05:47:06.778Z,13.50
2017-10-28T05:49:34.249Z,13.50
2017-10-28T05:52:01.711Z,13.00
2017-10-28T05:54:29.352Z,13.20
2017-10-28T05:56:57.575Z,13.00
2017-10-28T05:59:25.773Z,13.00
2017-10-28T06:01:53.228Z,13.00
2017-10-28T06:04:20.680Z,13.00
2017-10-28T06:06:48.120Z,13.10
2017-10-28T06:09:15.568Z,12.50
2017-10-28T06:11:43.776Z,13.20
2017-10-28T06:14:11.238Z,13.20
2017-10-28T06:16:38.688Z,13.20
2017-10-28T06:19:06.959Z,13.40
2017-10-28T06:21:34.419Z,13.00
2017-10-28T06:24:01.927Z,13.20
2017-10-28T06:26:29.561Z,13.00
2017-10-28T06:28:57.016Z,12.70
2017-10-28T06:31:24.505Z,13.10
2017-10-28T06:33:51.974Z,13.00
2017-10-28T06:36:20.192Z,13.00
2017-10-28T06:38:47.631Z,13.00
2017-10-28T06:41:15.079Z,12.80
2017-10-28T06:43:43.290Z,13.00
2017-10-28T06:46:18.206Z,13.00
2017-10-28T06:48:45.649Z,13.20
2017-10-28T06:51:13.113Z,13.20
2017-10-28T06:53:40.606Z,13.10
2017-10-28T06:56:08.045Z,12.80
2017-10-28T06:58:35.505Z,13.00
2017-10-28T07:01:02.984Z,12.60
2017-10-28T07:03:30.425Z,12.80
2017-10-28T07:05:57.880Z,13.10
2017-10-28T07:11:01.829Z,13.50
2017-10-28T07:13:29.388Z,12.90
2017-10-28T07:15:56.830Z,13.20
2017-10-28T07:18:24.284Z,13.30
2017-10-28T07:20:51.743Z,13.70
2017-10-28T07:23:19.221Z,13.70
2017-10-28T07:25:46.681Z,13.60
2017-10-28T07:28:14.166Z,13.60
2017-10-28T07:30:42.413Z,13.60
2017-10-28T07:33:10.601Z,13.60
2017-10-28T07:35:38.058Z,13.50
2017-10-28T07:38:05.503Z,13.50
2017-10-28T07:40:32.966Z,13.20
2017-10-28T07:43:00.441Z,13.50
2017-10-28T07:45:27.897Z,13.40
2017-10-28T07:47:55.355Z,12.90
2017-10-28T07:50:22.811Z,13.00
2017-10-28T07:52:50.533Z,12.90
2017-10-28T07:55:17.951Z,13.30
2017-10-28T07:57:45.402Z,13.50
2017-10-28T08:00:12.837Z,13.40
2017-10-28T08:02:40.282Z,13.30
2017-10-28T08:05:07.770Z,13.50
2017-10-28T08:07:35.234Z,13.70
2017-10-28T08:10:02.703Z,13.60
2017-10-28T08:12:30.314Z,13.90
2017-10-28T08:14:57.795Z,13.70
2017-10-28T08:17:25.231Z,13.90
2017-10-28T08:19:52.685Z,13.60
2017-10-28T08:22:20.170Z,13.60
2017-10-28T08:24:47.653Z,13.60
2017-10-28T08:27:15.948Z,13.60
2017-10-28T08:29:43.441Z,13.60
2017-10-28T08:32:11.795Z,14.10
2017-10-28T08:34:39.227Z,14.10
2017-10-28T08:37:07.447Z,14.10
2017-10-28T08:39:34.932Z,14.00
2017-10-28T08:42:02.376Z,13.60
2017-10-28T08:44:29.845Z,13.90
2017-10-28T08:46:57.293Z,13.60
2017-10-28T08:49:24.782Z,14.00
2017-10-28T08:51:53.033Z,14.00
2017-10-28T08:54:20.536Z,14.00
2017-10-28T08:56:51.561Z,14.00
2017-10-28T08:59:19.013Z,14.00
2017-10-28T09:01:47.233Z,14.30
2017-10-28T09:04:14.687Z,14.20
2017-10-28T09:06:42.120Z,13.60
2017-10-28T09:09:09.599Z,13.90
2017-10-28T09:11:37.027Z,13.50
2017-10-28T09:14:04.485Z,13.60
2017-10-28T09:16:32.693Z,13.10
2017-10-28T09:19:00.149Z,13.00
2017-10-28T09:21:27.579Z,12.90
2017-10-28T09:23:55.786Z,13.30
2017-10-28T09:26:23.224Z,13.30
2017-10-28T09:28:50.702Z,13.80
2017-10-28T09:31:18.137Z,13.70
2017-10-28T09:33:45.582Z,13.60
2017-10-28T09:36:13.844Z,13.80
2017-10-28T09:38:42.081Z,13.50
2017-10-28T09:41:09.513Z,13.50
2017-10-28T09:43:37.386Z,13.70
2017-10-28T09:46:04.921Z,13.40
2017-10-28T09:48:33.130Z,13.50
2017-10-28T09:51:00.612Z,13.50
2017-10-28T09:53:28.087Z,13.40
2017-10-28T09:55:55.603Z,13.50
2017-10-28T09:58:23.061Z,13.80
2017-10-28T10:00:50.524Z,13.90
2017-10-28T10:03:17.977Z,13.40
2017-10-28T10:05:45.507Z,13.40
2017-10-28T10:08:13.716Z,14.30
2017-10-28T10:10:41.193Z,14.30
2017-10-28T10:13:08.640Z,13.60
2017-10-28T10:15:36.112Z,14.00
2017-10-28T10:18:03.549Z,14.10
2017-10-28T10:20:31.896Z,14.30
2017-10-28T10:23:00.113Z,13.90
2017-10-28T10:25:27.568Z,13.90
2017-10-28T10:27:55.077Z,13.80
2017-10-28T10:30:23.627Z,13.80
2017-10-28T10:32:57.120Z,13.80
2017-10-28T10:35:24.586Z,14.20
2017-10-28T10:37:52.045Z,13.60
2017-10-28T10:40:20.948Z,13.60
2017-10-28T10:42:48.378Z,13.40
2017-10-28T10:45:17.779Z,13.80
2017-10-28T10:47:45.258Z,13.30
2017-10-28T10:50:12.726Z,13.70
2017-10-28T10:52:40.167Z,14.20
2017-10-28T10:55:07.633Z,13.80
2017-10-28T10:57:35.062Z,13.90
2017-10-28T11:00:02.584Z,14.20
2017-10-28T11:02:30.794Z,13.80
2017-10-28T11:04:58.252Z,13.80
2017-10-28T11:07:25.711Z,14.00
2017-10-28T11:09:53.187Z,14.00
2017-10-28T11:12:20.633Z,13.80
2017-10-28T11:14:48.108Z,13.90
2017-10-28T11:17:15.560Z,13.90
2017-10-28T11:19:43.069Z,13.80
2017-10-28T11:22:10.510Z,13.80
2017-10-28T11:24:38.756Z,14.70
2017-10-28T11:27:06.222Z,14.70
2017-10-28T11:29:33.789Z,14.40
2017-10-28T11:32:02.163Z,14.20
2017-10-28T11:34:29.637Z,14.20
2017-10-28T11:36:57.899Z,14.30
2017-10-28T11:39:25.349Z,14.30
2017-10-28T11:41:52.969Z,14.00
2017-10-28T11:44:20.494Z,14.40
2017-10-28T11:46:48.699Z,14.20
2017-10-28T11:49:16.259Z,14.10
2017-10-28T11:51:43.681Z,14.20
2017-10-28T11:54:11.936Z,14.40
2017-10-28T11:56:39.383Z,14.40
2017-10-28T11:59:06.861Z,14.90
2017-10-28T12:01:34.311Z,14.80
2017-10-28T12:04:02.185Z,14.70
2017-10-28T12:06:29.666Z,14.40
2017-10-28T12:08:57.904Z,14.40
2017-10-28T12:11:25.354Z,14.40
2017-10-28T12:13:52.813Z,14.30
2017-10-28T12:16:20.279Z,14.50
2017-10-28T12:18:47.732Z,14.40
2017-10-28T12:21:15.166Z,14.30
2017-10-28T12:23:42.889Z,14.70
2017-10-28T12:26:11.105Z,14.50
2017-10-28T12:28:38.542Z,14.50
2017-10-28T12:31:05.984Z,13.90
2017-10-28T12:33:34.200Z,14.30
2017-10-28T12:36:03.017Z,14.60
2017-10-28T12:38:30.477Z,14.60
2017-10-28T12:40:57.944Z,15.10
2017-10-28T12:43:25.395Z,14.80
2017-10-28T12:45:52.860Z,15.00
2017-10-28T12:48:21.067Z,14.50
2017-10-28T12:50:48.557Z,14.50
2017-10-28T12:53:15.986Z,14.70
2017-10-28T12:55:43.442Z,14.60
2017-10-28T12:58:10.922Z,15.10
2017-10-28T13:00:38.384Z,15.20
2017-10-28T13:03:05.831Z,15.00
2017-10-28T13:05:33.298Z,15.30
2017-10-28T13:08:00.732Z,14.90
2017-10-28T13:10:28.189Z,15.00
2017-10-28T13:13:03.876Z,15.20
2017-10-28T13:15:31.316Z,15.60
2017-10-28T13:17:58.794Z,15.60
2017-10-28T13:20:26.258Z,15.50
2017-10-28T13:22:54.450Z,15.60
2017-10-28T13:25:21.883Z,15.60
2017-10-28T13:27:49.329Z,16.00
2017-10-28T13:30:16.800Z,15.80
2017-10-28T13:32:44.242Z,15.50
2017-10-28T13:35:11.693Z,15.40
2017-10-28T13:37:39.159Z,15.60
2017-10-28T13:40:06.642Z,15.50
2017-10-28T13:42:34.094Z,15.50
2017-10-28T13:45:02.321Z,15.60
2017-10-28T13:47:30.559Z,15.10
2017-10-28T13:49:58.006Z,15.10
2017-10-28T13:52:25.462Z,15.10
2017-10-28T13:54:53.040Z,15.10
2017-10-28T13:57:20.486Z,15.10
2017-10-28T13:59:47.951Z,14.90
2017-10-28T14:02:15.397Z,14.90
2017-10-28T14:04:42.856Z,15.00
2017-10-28T14:07:11.922Z,15.30
2017-10-28T14:09:39.336Z,15.30
2017-10-28T14:12:07.576Z,14.90
2017-10-28T14:14:35.031Z,14.90
2017-10-28T14:17:02.498Z,15.40
2017-10-28T14:19:29.972Z,15.30
2017-10-28T14:21:57.434Z,15.20
2017-10-28T14:24:24.878Z,15.00
2017-10-28T14:26:52.356Z,15.00
2017-10-28T14:29:19.809Z,15.10
2017-10-28T14:31:47.248Z,15.40
2017-10-28T14:34:14.713Z,15.60
2017-10-28T14:36:42.174Z,14.90
2017-10-28T14:39:09.633Z,14.90
2017-10-28T14:41:37.068Z,14.70
2017-10-28T14:44:05.542Z,14.80
2017-10-28T14:46:33.007Z,14.30
2017-10-28T14:49:00.469Z,14.30
2017-10-28T14:51:27.924Z,14.40
2017-10-28T14:53:55.435Z,14.50
2017-10-28T14:56:22.915Z,14.70
2017-10-28T14:58:50.349Z,14.40
2017-10-28T15:01:18.938Z,14.00
2017-10-28T15:03:47.163Z,14.60
2017-10-28T15:06:14.626Z,14.60
2017-10-28T15:08:42.079Z,14.90
2017-10-28T15:11:10.336Z,14.20
2017-10-28T15:13:37.751Z,14.20
2017-10-28T15:16:06.129Z,13.90
2017-10-28T15:18:34.338Z,13.90
2017-10-28T15:21:02.506Z,13.90
2017-10-28T15:23:29.942Z,14.00
2017-10-28T15:25:57.413Z,13.70
2017-10-28T15:28:24.886Z,13.60
2017-10-28T15:30:52.343Z,14.20
2017-10-28T15:33:19.778Z,14.20
2017-10-28T15:35:47.222Z,14.10
2017-10-28T15:38:15.501Z,13.90
2017-10-28T15:40:43.034Z,13.90
2017-10-28T15:43:10.501Z,13.50
2017-10-28T15:45:37.929Z,13.60
2017-10-28T15:48:05.349Z,13.90
2017-10-28T15:50:32.798Z,14.00
2017-10-28T15:53:00.272Z,14.10
2017-10-28T15:55:27.751Z,13.80
2017-10-28T15:57:55.874Z,13.70
2017-10-28T16:00:24.100Z,13.60
2017-10-28T16:02:51.541Z,13.60
2017-10-28T16:05:19.022Z,13.20
2017-10-28T16:07:46.462Z,12.80
2017-10-28T16:10:15.357Z,13.00
2017-10-28T16:12:42.937Z,12.90
2017-10-28T16:15:10.369Z,13.20
2017-10-28T16:17:38.531Z,13.10
2017-10-28T16:20:06.286Z,13.40
2017-10-28T16:22:33.802Z,13.60
2017-10-28T16:25:01.306Z,13.70
2017-10-28T16:27:29.504Z,13.60
2017-10-28T16:29:56.961Z,13.60
2017-10-28T16:32:24.424Z,13.00
2017-10-28T16:34:51.880Z,12.60
2017-10-28T16:37:19.352Z,12.90
2017-10-28T16:39:46.827Z,13.00
2017-10-28T16:42:14.278Z,13.20
2017-10-28T16:44:41.699Z,13.10
2017-10-28T16:47:09.149Z,13.10
2017-10-28T16:49:36.618Z,13.20
2017-10-28T16:52:04.084Z,13.10
2017-10-28T16:54:31.586Z,13.10
2017-10-28T16:56:59.025Z,13.00
2017-10-28T16:59:26.487Z,13.40
2017-10-28T17:01:54.883Z,13.80
2017-10-28T17:04:22.326Z,13.50
2017-10-28T17:06:49.797Z,13.20
2017-10-28T17:09:17.377Z,13.00
2017-10-28T17:11:45.607Z,13.50
2017-10-28T17:14:13.094Z,13.40
2017-10-28T17:16:40.553Z,13.50
2017-10-28T17:19:07.999Z,13.20
2017-10-28T17:21:35.464Z,13.00
2017-10-28T17:24:02.929Z,12.90
2017-10-28T17:26:30.375Z,13.30
2017-10-28T17:28:58.578Z,13.40
2017-10-28T17:31:26.082Z,13.40
2017-10-28T17:33:53.539Z,13.50
2017-10-28T17:36:21.052Z,13.50
2017-10-28T17:38:48.460Z,13.40
2017-10-28T17:41:16.032Z,13.00
2017-10-28T17:43:43.475Z,13.40
2017-10-28T17:46:10.906Z,13.50
2017-10-28T17:48:38.344Z,13.50
2017-10-28T17:51:06.535Z,13.30
2017-10-28T17:53:34.034Z,13.30
2017-10-28T17:56:01.440Z,13.50
2017-10-28T17:58:28.876Z,13.30
2017-10-28T18:00:57.262Z,13.50
2017-10-28T18:03:25.529Z,12.90
2017-10-28T18:05:52.971Z,12.90
2017-10-28T18:08:20.441Z,13.30
2017-10-28T18:10:47.941Z,13.30
2017-10-28T18:13:16.330Z,13.70
2017-10-28T18:15:43.775Z,13.60
2017-10-28T18:18:11.969Z,13.30
2017-10-28T18:20:39.668Z,13.30
2017-10-28T18:23:07.092Z,13.20
2017-10-28T18:25:34.525Z,13.30
2017-10-28T18:28:02.910Z,13.50
2017-10-28T18:30:31.093Z,13.40
2017-10-28T18:32:59.275Z,13.40
2017-10-28T18:35:26.701Z,13.40
2017-10-28T18:37:55.065Z,13.60
2017-10-28T18:40:22.520Z,13.60
2017-10-28T18:42:49.980Z,13.70
2017-10-28T18:45:18.200Z,13.60
2017-10-28T18:47:45.637Z,13.60
2017-10-28T18:50:13.839Z,13.60
2017-10-28T18:52:41.377Z,13.60
2017-10-28T18:55:08.829Z,13.70
2017-10-28T18:57:36.289Z,13.40
2017-10-28T19:00:03.750Z,13.40
2017-10-28T19:02:32.040Z,13.40
2017-10-28T19:04:59.572Z,13.40
2017-10-28T19:07:27.785Z,13.70
2017-10-28T19:09:55.829Z,13.70
2017-10-28T19:12:24.043Z,13.80
2017-10-28T19:14:51.483Z,13.80
2017-10-28T19:17:18.941Z,13.50
2017-10-28T19:19:46.729Z,13.70
2017-10-28T19:22:14.173Z,13.60
2017-10-28T19:24:41.748Z,14.00
2017-10-28T19:27:09.208Z,14.20
2017-10-28T19:29:36.739Z,13.80
2017-10-28T19:32:04.183Z,13.70
2017-10-28T19:34:31.634Z,13.90
2017-10-28T19:36:59.093Z,13.50
2017-10-28T19:39:26.569Z,13.80
2017-10-28T19:41:54.045Z,14.10
2017-10-28T19:44:21.518Z,14.10
2017-10-28T19:46:48.982Z,13.90
2017-10-28T19:49:16.428Z,14.30
2017-10-28T19:51:43.901Z,14.60
2017-10-28T19:54:11.948Z,14.20
2017-10-28T19:56:39.400Z,14.20
2017-10-28T19:59:06.869Z,14.60
2017-10-28T20:01:34.333Z,14.40
2017-10-28T20:04:01.815Z,14.50
2017-10-28T20:06:29.252Z,14.40
2017-10-28T20:09:05.394Z,14.60
2017-10-28T20:11:32.891Z,14.40
2017-10-28T20:14:00.353Z,14.30
2017-10-28T20:16:27.784Z,14.40
2017-10-28T20:18:55.281Z,14.60
2017-10-28T20:21:22.715Z,14.30
2017-10-28T20:23:50.162Z,14.60
2017-10-28T20:26:17.705Z,14.60
2017-10-28T20:28:45.172Z,14.40
2017-10-28T20:31:12.620Z,14.70
2017-10-28T20:33:40.044Z,14.60
2017-10-28T20:36:07.478Z,14.60
2017-10-28T20:38:35.717Z,14.70
2017-10-28T20:41:03.184Z,14.70
2017-10-28T20:43:31.392Z,15.00
2017-10-28T20:45:59.594Z,14.90
2017-10-28T20:48:27.037Z,14.90
2017-10-28T20:50:54.501Z,15.20
2017-10-28T20:53:21.963Z,15.00
2017-10-28T20:55:50.283Z,15.10
2017-10-28T20:58:17.870Z,15.00
2017-10-28T21:00:45.313Z,14.70
2017-10-28T21:03:12.765Z,15.10
2017-10-28T21:05:40.225Z,14.90
2017-10-28T21:08:07.683Z,15.40
2017-10-28T21:10:35.149Z,15.10
2017-10-28T21:13:03.215Z,15.20
2017-10-28T21:15:30.633Z,15.20
2017-10-28T21:17:58.089Z,15.00
2017-10-28T21:20:25.542Z,15.20
2017-10-28T21:22:53.006Z,15.10
2017-10-28T21:25:20.454Z,14.90
2017-10-28T21:27:47.893Z,15.00
2017-10-28T21:30:15.350Z,14.90
2017-10-28T21:32:43.743Z,15.00
2017-10-28T21:35:11.336Z,15.00
2017-10-28T21:37:38.930Z,14.80
2017-10-28T21:40:06.592Z,15.20
2017-10-28T21:42:34.161Z,15.70
2017-10-28T21:45:03.567Z,15.10
2017-10-28T21:47:31.982Z,15.30
2017-10-28T21:49:59.612Z,15.30
2017-10-28T21:52:27.944Z,15.10
2017-10-28T21:54:55.506Z,15.10
2017-10-28T21:57:23.133Z,15.60
2017-10-28T21:59:50.670Z,15.40
2017-10-28T22:02:19.074Z,15.40
2017-10-28T22:04:46.620Z,15.40
2017-10-28T22:07:14.928Z,15.20
2017-10-28T22:09:42.515Z,15.20
2017-10-28T22:12:10.018Z,15.40
2017-10-28T22:14:38.530Z,15.70
2017-10-28T22:17:06.030Z,15.70
2017-10-28T22:19:33.747Z,15.50
2017-10-28T22:22:01.354Z,15.50
2017-10-28T22:24:29.775Z,15.80
2017-10-28T22:26:57.360Z,15.90
2017-10-28T22:29:24.846Z,15.90
2017-10-28T22:31:52.287Z,15.60
2017-10-28T22:34:19.745Z,15.60
2017-10-28T22:36:47.217Z,15.70
2017-10-28T22:39:15.460Z,15.20
2017-10-28T22:41:42.932Z,15.20
2017-10-28T22:44:10.397Z,15.60
2017-10-28T22:46:38.046Z,15.70
2017-10-28T22:49:05.515Z,15.80
2017-10-28T22:51:33.074Z,15.60
2017-10-28T22:54:00.568Z,15.20
2017-10-28T22:56:28.022Z,15.00
2017-10-28T22:58:55.464Z,15.60
2017-10-28T23:01:22.927Z,15.70
2017-10-28T23:03:50.355Z,16.00
2017-10-28T23:06:17.809Z,16.00
2017-10-28T23:08:45.284Z,16.20
2017-10-28T23:11:12.750Z,16.10
2017-10-28T23:13:40.278Z,16.00
2017-10-28T23:16:08.483Z,15.70
2017-10-28T23:18:35.930Z,15.70
2017-10-28T23:21:04.200Z,15.70
2017-10-28T23:23:31.680Z,15.70
2017-10-28T23:25:59.121Z,15.70
2017-10-28T23:28:26.578Z,15.30
2017-10-28T23:30:54.055Z,15.80
2017-10-28T23:33:21.496Z,15.90
2017-10-28T23:35:48.936Z,15.90
2017-10-28T23:38:16.382Z,15.90
2017-10-28T23:40:43.870Z,15.70
2017-10-28T23:43:11.318Z,15.90
2017-10-28T23:45:39.792Z,15.90
2017-10-28T23:48:07.241Z,16.00
2017-10-28T23:50:34.718Z,15.80
2017-10-28T23:53:02.238Z,16.10
2017-10-28T23:55:29.718Z,15.60
2017-10-28T23:57:57.178Z,15.70
